KARR/ARR METAR and TAF weather

Enter ICAO airport designator
Station Type Date Time Source
KARR METAR 2018/07/21 04:01 UTC NOAA

KARR 210401Z AUTO 28011G18KT 10SM SCT018 BKN048 OVC055 21/19 A2967 RMK AO2 T02110189


Station Type Date Time Source
KARR Decoded METAR 2018/07/21 04:01 UTC NOAA

CHICAGO AURORA MUNICIPAL, IL, United States (KARR) 41-46N 088-28W 215M
Jul 21, 2018 - 12:01 AM EDT / 2018.07.21 0401 UTC
Wind: from the W (280 degrees) at 13 MPH (11 KT) gusting to 21 MPH (18 KT):0
Visibility: 10 mile(s):0
Sky conditions: overcast
Temperature: 70.0 F (21.1 C)
Dew Point: 66.0 F (18.9 C)
Relative Humidity: 87%
Pressure (altimeter): 29.67 in. Hg (1004 hPa)
ob: KARR 210401Z AUTO 28011G18KT 10SM SCT018 BKN048 OVC055 21/19 A2967 RMK AO2 T02110189
cycle: 4

Station Type Date Time Source
KARR TAF UTC NOAA

Error!


Example: see airport list